createdAt,value
2023-03-15T00:00:37.611Z,86.1
2023-03-15T00:01:40.984Z,86.1
2023-03-15T00:02:44.913Z,86.2
2023-03-15T00:03:47.965Z,86.3
2023-03-15T00:04:51.014Z,86.3
2023-03-15T00:05:55.075Z,86.3
2023-03-15T00:06:58.056Z,86.2
2023-03-15T00:08:05.476Z,86.2
2023-03-15T00:09:08.030Z,86
2023-03-15T00:10:11.057Z,85.6
2023-03-15T00:11:13.213Z,85.4
2023-03-15T00:12:16.295Z,85.1
2023-03-15T00:13:19.677Z,85.2
2023-03-15T00:14:23.384Z,85.3
2023-03-15T00:15:26.447Z,85.3
2023-03-15T00:16:29.175Z,85.5
2023-03-15T00:17:32.629Z,85.6
2023-03-15T00:18:36.070Z,85.8
2023-03-15T00:19:39.134Z,85.9
2023-03-15T00:20:41.849Z,86.5
2023-03-15T00:21:44.363Z,86.9
2023-03-15T00:22:48.483Z,86.8
2023-03-15T00:23:52.408Z,86.7
2023-03-15T00:24:55.847Z,86.7
2023-03-15T00:25:58.287Z,87.1
2023-03-15T00:27:00.794Z,87.4
2023-03-15T00:28:03.608Z,87.9
2023-03-15T00:29:06.778Z,88.2
2023-03-15T00:30:09.771Z,88.5
2023-03-15T00:31:13.275Z,88.6
2023-03-15T00:32:17.072Z,88.6
2023-03-15T00:33:20.473Z,88.6
2023-03-15T00:34:23.882Z,88.6
2023-03-15T00:35:26.154Z,88.5
2023-03-15T00:36:29.244Z,88.3
2023-03-15T00:37:32.025Z,88.5
2023-03-15T00:38:34.821Z,88.7
2023-03-15T00:39:39.036Z,88.9
2023-03-15T00:40:42.505Z,88.8
2023-03-15T00:41:45.896Z,88.9
2023-03-15T00:42:48.970Z,89
2023-03-15T00:43:52.379Z,88.9
2023-03-15T00:44:56.239Z,88.9
2023-03-15T00:45:59.623Z,88.9
2023-03-15T00:47:02.176Z,89.1
2023-03-15T00:48:05.042Z,89
2023-03-15T00:49:07.758Z,88.9
2023-03-15T00:50:10.488Z,88.9
2023-03-15T00:51:12.977Z,89
2023-03-15T00:52:16.085Z,88.9
2023-03-15T00:53:18.922Z,88.8
2023-03-15T00:54:22.604Z,89.1
2023-03-15T00:55:26.181Z,89.3
2023-03-15T00:56:29.362Z,89.3
2023-03-15T00:57:32.978Z,89.3
2023-03-15T00:58:36.153Z,89.4
2023-03-15T00:59:39.826Z,89.4
2023-03-15T01:00:42.684Z,89.7
2023-03-15T01:01:46.177Z,89.8
2023-03-15T01:02:49.765Z,89.9
2023-03-15T01:03:53.108Z,89.8
2023-03-15T01:04:56.497Z,89.8
2023-03-15T01:05:59.656Z,90
2023-03-15T01:07:02.451Z,90.2
2023-03-15T01:08:05.623Z,90.3
2023-03-15T01:09:08.633Z,90.4
2023-03-15T01:10:11.712Z,90.3
2023-03-15T01:11:15.847Z,90.3
2023-03-15T01:12:18.856Z,90.3
2023-03-15T01:13:22.358Z,90.1
2023-03-15T01:14:24.817Z,89.9
2023-03-15T01:15:27.608Z,89.8
2023-03-15T01:16:31.663Z,89.7
2023-03-15T01:17:34.576Z,89.7
2023-03-15T01:18:38.326Z,89.6
2023-03-15T01:19:41.082Z,89.5
2023-03-15T01:20:44.772Z,89.4
2023-03-15T01:21:48.052Z,89.3
2023-03-15T01:22:50.474Z,89.2
2023-03-15T01:23:54.111Z,89
2023-03-15T01:24:56.593Z,88.9
2023-03-15T01:25:59.709Z,88.9
2023-03-15T01:27:03.535Z,89
2023-03-15T01:28:06.625Z,89.3
2023-03-15T01:29:09.618Z,89.4
2023-03-15T01:30:12.440Z,89.3
2023-03-15T01:31:16.139Z,89.3
2023-03-15T01:32:20.404Z,89.1
2023-03-15T01:33:24.144Z,88.8
2023-03-15T01:34:27.251Z,88.7
2023-03-15T01:35:30.706Z,88.5
2023-03-15T01:36:34.297Z,88.4
2023-03-15T01:37:37.597Z,88.4
2023-03-15T01:38:40.493Z,88.4
2023-03-15T01:39:43.839Z,88.5
2023-03-15T01:40:47.245Z,88.4
2023-03-15T01:41:50.338Z,88.3
2023-03-15T01:42:54.501Z,88.3
2023-03-15T01:43:58.295Z,88.1
2023-03-15T01:45:01.105Z,88
2023-03-15T01:46:04.157Z,88.1
2023-03-15T01:47:07.835Z,88.2
2023-03-15T01:48:10.569Z,88.2
2023-03-15T01:49:14.077Z,88.2
2023-03-15T01:50:17.180Z,88.4
2023-03-15T01:51:20.549Z,88.6
2023-03-15T01:52:23.946Z,88.7
2023-03-15T01:53:27.028Z,88.6
2023-03-15T01:54:29.780Z,88.6
2023-03-15T01:55:32.866Z,88.5
2023-03-15T01:56:36.018Z,88.4
2023-03-15T01:57:39.484Z,88.6
2023-03-15T01:58:43.788Z,88.7
2023-03-15T01:59:46.848Z,89
2023-03-15T02:00:49.884Z,88.9
2023-03-15T02:01:53.141Z,89.1
2023-03-15T02:02:56.610Z,89.2
2023-03-15T02:03:59.051Z,89.3
2023-03-15T02:05:01.515Z,89.2
2023-03-15T02:06:04.678Z,89.2
2023-03-15T02:07:07.681Z,89
2023-03-15T02:08:10.689Z,88.9
2023-03-15T02:09:14.448Z,88.8
2023-03-15T02:10:17.624Z,88.8
2023-03-15T02:11:21.267Z,88.7
2023-03-15T02:12:24.113Z,88.6
2023-03-15T02:13:27.285Z,88.7
2023-03-15T02:14:31.552Z,88.8
2023-03-15T02:15:34.376Z,88.7
2023-03-15T02:16:37.607Z,88.7
2023-03-15T02:17:40.935Z,88.7
2023-03-15T02:18:43.736Z,88.7
2023-03-15T02:19:46.545Z,88.7
2023-03-15T02:20:49.539Z,88.7
2023-03-15T02:21:52.802Z,88.8
2023-03-15T02:22:55.801Z,89.3
2023-03-15T02:23:59.735Z,89.3
2023-03-15T02:25:03.076Z,89.3
2023-03-15T02:26:06.182Z,89.3
2023-03-15T02:27:09.092Z,89.7
2023-03-15T02:28:12.173Z,89.9
2023-03-15T02:29:15.345Z,90.2
2023-03-15T02:30:19.025Z,90.1
2023-03-15T02:31:22.609Z,90.2
2023-03-15T02:32:26.046Z,90.2
2023-03-15T02:33:29.137Z,90.7
2023-03-15T02:34:32.451Z,90.7
2023-03-15T02:35:35.499Z,90.8
2023-03-15T02:36:38.614Z,90.7
2023-03-15T02:37:42.130Z,90.6
2023-03-15T02:38:45.473Z,90.5
2023-03-15T02:39:48.484Z,90.5
2023-03-15T02:40:52.210Z,90.8
2023-03-15T02:41:55.960Z,90.8
2023-03-15T02:42:59.124Z,90.9
2023-03-15T02:44:02.932Z,90.9
2023-03-15T02:45:06.454Z,90.7
2023-03-15T02:46:10.697Z,90.6
2023-03-15T02:47:14.272Z,90.6
2023-03-15T02:48:17.061Z,90.5
2023-03-15T02:49:20.019Z,90.7
2023-03-15T02:50:22.732Z,91
2023-03-15T02:51:26.449Z,91
2023-03-15T02:52:28.918Z,91
2023-03-15T02:53:32.339Z,91.2
2023-03-15T02:54:35.088Z,91.2
2023-03-15T02:55:38.087Z,91.2
2023-03-15T02:56:41.279Z,91.3
2023-03-15T02:57:43.800Z,91.5
2023-03-15T02:58:46.976Z,91.5
2023-03-15T02:59:50.076Z,91.6
2023-03-15T03:00:53.340Z,91.4
2023-03-15T03:01:57.942Z,91.5
2023-03-15T03:03:00.935Z,91.4
2023-03-15T03:04:02.732Z,91.4
2023-03-15T03:05:06.030Z,91.2
2023-03-15T03:06:08.462Z,91.2
2023-03-15T03:07:11.201Z,91.2
2023-03-15T03:08:14.026Z,91.1
2023-03-15T03:09:17.435Z,91
2023-03-15T03:10:20.905Z,91.1
2023-03-15T03:11:24.707Z,91.1
2023-03-15T03:12:27.694Z,91.2
2023-03-15T03:13:29.838Z,91.2
2023-03-15T03:14:33.559Z,91.2
2023-03-15T03:15:36.859Z,91.4
2023-03-15T03:16:40.263Z,91.6
2023-03-15T03:17:44.205Z,91.7
2023-03-15T03:18:46.825Z,92.2
2023-03-15T03:19:49.260Z,92.1
2023-03-15T03:20:51.744Z,92.2
2023-03-15T03:21:55.153Z,92.2
2023-03-15T03:22:57.612Z,92.3
2023-03-15T03:24:01.057Z,92.3
2023-03-15T03:25:04.083Z,92.3
2023-03-15T03:26:06.787Z,92.3
2023-03-15T03:27:09.574Z,92.3
2023-03-15T03:28:13.082Z,92.1
2023-03-15T03:29:16.964Z,92.1
2023-03-15T03:30:20.668Z,92
2023-03-15T03:31:24.279Z,92.1
2023-03-15T03:32:27.591Z,92.3
2023-03-15T03:33:31.613Z,92.3
2023-03-15T03:34:35.030Z,92.4
2023-03-15T03:35:38.396Z,92.4
2023-03-15T03:36:41.565Z,92.4
2023-03-15T03:37:44.288Z,92.3
2023-03-15T03:38:47.121Z,92.2
2023-03-15T03:39:50.191Z,92.2
2023-03-15T03:40:52.608Z,92.2
2023-03-15T03:41:55.949Z,92.1
2023-03-15T03:42:58.656Z,92
2023-03-15T03:44:01.658Z,92
2023-03-15T03:45:05.134Z,92.1
2023-03-15T03:46:07.971Z,92.4
2023-03-15T03:47:11.873Z,92.6
2023-03-15T03:48:14.770Z,92.8
2023-03-15T03:49:18.932Z,92.8
2023-03-15T03:50:22.057Z,92.9
2023-03-15T03:51:25.123Z,92.9
2023-03-15T03:52:28.793Z,92.9
2023-03-15T03:53:31.523Z,92.8
2023-03-15T03:54:34.816Z,92.6
2023-03-15T03:55:37.608Z,92.6
2023-03-15T03:56:40.391Z,92.6
2023-03-15T03:57:43.972Z,92.6
2023-03-15T03:58:46.493Z,92.7
2023-03-15T03:59:49.609Z,92.5
2023-03-15T04:00:52.042Z,92.6
2023-03-15T04:01:55.388Z,92.7
2023-03-15T04:02:58.229Z,92.8
2023-03-15T04:04:01.634Z,92.8
2023-03-15T04:05:05.847Z,92.9
2023-03-15T04:06:09.001Z,92.8
2023-03-15T04:07:12.354Z,92.8
2023-03-15T04:08:17.793Z,92.8
2023-03-15T04:09:21.145Z,92.8
2023-03-15T04:10:24.211Z,92.8
2023-03-15T04:11:27.354Z,92.8
2023-03-15T04:12:31.297Z,92.9
2023-03-15T04:13:34.955Z,92.8
2023-03-15T04:14:38.148Z,93.1
2023-03-15T04:15:41.645Z,93.1
2023-03-15T04:16:44.624Z,93
2023-03-15T04:17:47.389Z,93
2023-03-15T04:18:50.224Z,93.2
2023-03-15T04:19:53.769Z,93.2
2023-03-15T04:20:57.663Z,93.2
2023-03-15T04:22:00.460Z,93.2
2023-03-15T04:23:04.198Z,93.4
2023-03-15T04:24:06.944Z,93.3
2023-03-15T04:25:09.739Z,93.3
2023-03-15T04:26:12.788Z,93.2
2023-03-15T04:27:16.570Z,93.2
2023-03-15T04:28:19.308Z,93.3
2023-03-15T04:29:22.370Z,93.4
2023-03-15T04:30:25.439Z,93.4
2023-03-15T04:31:28.889Z,93.4
2023-03-15T04:32:31.825Z,93.3
2023-03-15T04:33:35.277Z,93.2
2023-03-15T04:34:39.434Z,93.1
2023-03-15T04:35:43.477Z,93
2023-03-15T04:36:47.778Z,93
2023-03-15T04:37:50.676Z,93
2023-03-15T04:38:53.387Z,93.1
2023-03-15T04:39:56.885Z,93.1
2023-03-15T04:41:00.146Z,93.1
2023-03-15T04:42:03.175Z,93
2023-03-15T04:43:05.472Z,93.1
2023-03-15T04:44:08.882Z,93
2023-03-15T04:45:11.178Z,93.1
2023-03-15T04:46:14.147Z,93.1
2023-03-15T04:47:17.301Z,93.1
2023-03-15T04:48:20.306Z,93.1
2023-03-15T04:49:23.648Z,93.1
2023-03-15T04:50:26.367Z,93.1
2023-03-15T04:51:29.590Z,93.1
2023-03-15T04:52:33.412Z,93.2
2023-03-15T04:53:36.698Z,93.3
2023-03-15T04:54:39.865Z,93.5
2023-03-15T04:55:43.009Z,93.7
2023-03-15T04:56:46.434Z,93.9
2023-03-15T04:57:48.977Z,94.1
2023-03-15T04:58:52.035Z,94.2
2023-03-15T04:59:54.987Z,94.3
2023-03-15T05:00:58.733Z,94.5
2023-03-15T05:02:05.135Z,94.7
2023-03-15T05:03:08.004Z,94.8
2023-03-15T05:04:11.658Z,94.8
2023-03-15T05:05:14.640Z,95.1
2023-03-15T05:06:17.443Z,95.1
2023-03-15T05:07:20.522Z,95
2023-03-15T05:08:24.650Z,95.1
2023-03-15T05:09:27.474Z,95.2
2023-03-15T05:10:30.284Z,95.3
2023-03-15T05:11:33.342Z,95.3
2023-03-15T05:12:36.392Z,95.3
2023-03-15T05:13:39.901Z,95.2
2023-03-15T05:14:43.335Z,95.2
2023-03-15T05:15:45.701Z,95.3
2023-03-15T05:16:48.872Z,95.3
2023-03-15T05:17:52.207Z,95.3
2023-03-15T05:18:55.545Z,95.5
2023-03-15T05:19:58.911Z,95.5
2023-03-15T05:21:01.899Z,95.5
2023-03-15T05:22:05.038Z,95.4
2023-03-15T05:23:08.862Z,95.3
2023-03-15T05:24:13.035Z,95.2
2023-03-15T05:25:15.491Z,95
2023-03-15T05:26:18.869Z,94.9
2023-03-15T05:27:21.426Z,94.8
2023-03-15T05:28:24.151Z,94.8
2023-03-15T05:29:27.608Z,94.7
2023-03-15T05:30:30.953Z,94.7
2023-03-15T05:31:34.318Z,94.9
2023-03-15T05:32:37.297Z,94.9
2023-03-15T05:33:40.386Z,94.9
2023-03-15T05:34:42.967Z,94.8
2023-03-15T05:35:46.305Z,94.8
2023-03-15T05:36:49.590Z,94.9
2023-03-15T05:37:52.294Z,94.9
2023-03-15T05:38:55.462Z,95
2023-03-15T05:39:59.765Z,95.1
2023-03-15T05:41:02.587Z,95.1
2023-03-15T05:42:05.316Z,95.1
2023-03-15T05:43:08.457Z,95.1
2023-03-15T05:44:12.100Z,95
2023-03-15T05:45:15.562Z,94.9
2023-03-15T05:46:18.974Z,94.8
2023-03-15T05:47:21.801Z,94.8
2023-03-15T05:48:24.844Z,94.8
2023-03-15T05:49:27.753Z,94.8
2023-03-15T05:50:31.198Z,94.7
2023-03-15T05:51:34.160Z,94.7
2023-03-15T05:52:36.599Z,94.6
2023-03-15T05:53:40.367Z,94.6
2023-03-15T05:54:43.928Z,94.6
2023-03-15T05:55:48.042Z,94.8
2023-03-15T05:56:51.242Z,94.9
2023-03-15T05:57:54.229Z,94.9
2023-03-15T05:58:57.044Z,94.9
2023-03-15T06:00:00.748Z,95
2023-03-15T06:01:04.057Z,95.1
2023-03-15T06:02:06.862Z,95
2023-03-15T06:03:10.023Z,95
2023-03-15T06:04:13.361Z,94.9
2023-03-15T06:05:16.526Z,95
2023-03-15T06:06:20.536Z,95
2023-03-15T06:07:23.921Z,94.9
2023-03-15T06:08:27.616Z,94.9
2023-03-15T06:09:30.549Z,95
2023-03-15T06:10:34.405Z,95
2023-03-15T06:11:38.964Z,95.1
2023-03-15T06:12:41.756Z,95.1
2023-03-15T06:13:44.585Z,95
2023-03-15T06:14:47.489Z,94.9
2023-03-15T06:15:50.292Z,94.8
2023-03-15T06:16:53.759Z,94.8
2023-03-15T06:17:57.694Z,94.7
2023-03-15T06:19:01.218Z,94.6
2023-03-15T06:20:04.501Z,94.5
2023-03-15T06:21:07.762Z,94.6
2023-03-15T06:22:10.482Z,94.6
2023-03-15T06:23:13.961Z,94.7
2023-03-15T06:24:17.149Z,94.9
2023-03-15T06:25:20.503Z,95.1
2023-03-15T06:26:24.298Z,95.2
2023-03-15T06:27:28.130Z,95.3
2023-03-15T06:28:31.471Z,95.4
2023-03-15T06:29:34.483Z,95.5
2023-03-15T06:30:37.764Z,95.6
2023-03-15T06:31:40.818Z,95.5
2023-03-15T06:32:44.491Z,95.6
2023-03-15T06:33:47.524Z,95.7
2023-03-15T06:34:50.900Z,95.7
2023-03-15T06:35:54.229Z,95.9
2023-03-15T06:36:57.044Z,96
2023-03-15T06:38:00.231Z,96.3
2023-03-15T06:39:03.055Z,96.3
2023-03-15T06:40:06.545Z,96.4
2023-03-15T06:41:09.642Z,96.5
2023-03-15T06:42:12.581Z,96.4
2023-03-15T06:43:16.455Z,96.4
2023-03-15T06:44:18.880Z,96.3
2023-03-15T06:45:22.904Z,96.3
2023-03-15T06:46:26.314Z,96.3
2023-03-15T06:47:29.173Z,96.3
2023-03-15T06:48:32.638Z,96.3
2023-03-15T06:49:35.664Z,96.2
2023-03-15T06:50:49.045Z,96.4
2023-03-15T06:51:52.409Z,96.2
2023-03-15T06:52:56.122Z,96.2
2023-03-15T06:53:59.562Z,96.2
2023-03-15T06:55:02.663Z,96.2
2023-03-15T06:56:06.032Z,96
2023-03-15T06:57:09.015Z,95.7
2023-03-15T06:58:12.127Z,95.6
2023-03-15T06:59:16.366Z,95.5
2023-03-15T07:00:19.978Z,95.4
2023-03-15T07:01:23.600Z,95.4
2023-03-15T07:02:27.317Z,95.4
2023-03-15T07:03:30.845Z,95.4
2023-03-15T07:04:33.915Z,95.5
2023-03-15T07:05:37.272Z,95.5
2023-03-15T07:06:40.328Z,95.5
2023-03-15T07:07:43.981Z,95.3
2023-03-15T07:08:47.038Z,95.2
2023-03-15T07:09:49.895Z,95.1
2023-03-15T07:10:52.972Z,94.9
2023-03-15T07:11:56.092Z,94.9
2023-03-15T07:12:58.798Z,94.7
2023-03-15T07:14:01.732Z,94.5
2023-03-15T07:15:05.625Z,94.3
2023-03-15T07:16:09.849Z,94.3
2023-03-15T07:17:13.004Z,94.4
2023-03-15T07:18:16.729Z,94.3
2023-03-15T07:19:20.507Z,94.4
2023-03-15T07:20:23.624Z,94.2
2023-03-15T07:21:26.738Z,93.7
2023-03-15T07:22:30.388Z,93.5
2023-03-15T07:23:34.053Z,93.6
2023-03-15T07:24:36.799Z,93.5
2023-03-15T07:25:56.561Z,93.4
2023-03-15T07:27:00.222Z,93
2023-03-15T07:28:03.496Z,92.7
2023-03-15T07:29:06.988Z,92.8
2023-03-15T07:30:10.560Z,92.7
2023-03-15T07:31:13.714Z,92
2023-03-15T07:32:16.734Z,91.9
2023-03-15T07:33:20.884Z,91.6
2023-03-15T07:34:24.004Z,91.7
2023-03-15T07:35:27.137Z,91.7
2023-03-15T07:36:30.661Z,91.5
2023-03-15T07:37:33.928Z,91.5
2023-03-15T07:38:36.938Z,91.4
2023-03-15T07:39:40.229Z,91.1
2023-03-15T07:40:43.302Z,90.7
2023-03-15T07:41:46.370Z,90.6
2023-03-15T07:42:49.266Z,91.1
2023-03-15T07:43:52.375Z,91
2023-03-15T07:44:56.211Z,90.6
2023-03-15T07:46:00.313Z,90
2023-03-15T07:47:03.690Z,90
2023-03-15T07:48:07.493Z,89.7
2023-03-15T07:49:10.707Z,89.8
2023-03-15T07:50:17.821Z,89.9
2023-03-15T07:51:20.901Z,90.1
2023-03-15T07:52:23.701Z,89.9
2023-03-15T07:53:26.441Z,89.6
2023-03-15T07:54:30.807Z,89.5
2023-03-15T07:55:34.590Z,89.7
2023-03-15T07:56:38.302Z,89.3
2023-03-15T07:57:41.670Z,88.7
2023-03-15T07:58:45.394Z,88.7
2023-03-15T07:59:48.842Z,88.5
2023-03-15T08:00:52.009Z,88.8
2023-03-15T08:01:56.385Z,88.9
2023-03-15T08:03:00.194Z,89.2
2023-03-15T08:04:03.797Z,88.9
2023-03-15T08:05:06.797Z,88.2
2023-03-15T08:06:10.134Z,88.3
2023-03-15T08:07:13.582Z,87.8
2023-03-15T08:08:16.895Z,87.6
2023-03-15T08:09:20.341Z,87.2
2023-03-15T08:10:23.422Z,87
2023-03-15T08:11:27.057Z,86.8
2023-03-15T08:12:30.195Z,86.7
2023-03-15T08:13:33.965Z,86.4
2023-03-15T08:14:37.406Z,86.6
2023-03-15T08:15:40.501Z,87.1
2023-03-15T08:16:44.322Z,87.4
2023-03-15T08:17:48.688Z,87.2
2023-03-15T08:18:52.126Z,87
2023-03-15T08:19:55.823Z,87.2
2023-03-15T08:20:59.473Z,86.8
2023-03-15T08:22:02.876Z,86.9
2023-03-15T08:23:05.959Z,87.7
2023-03-15T08:24:09.027Z,87.6
2023-03-15T08:25:12.198Z,87
2023-03-15T08:26:15.498Z,86.6
2023-03-15T08:27:18.605Z,86.2
2023-03-15T08:28:21.882Z,85.8
2023-03-15T08:29:24.894Z,86.1
2023-03-15T08:30:28.887Z,85.8
2023-03-15T08:31:32.955Z,85.2
2023-03-15T08:32:36.899Z,84.9
2023-03-15T08:33:41.331Z,84.9
2023-03-15T08:34:44.447Z,85.1
2023-03-15T08:35:47.992Z,85.2
2023-03-15T08:36:51.773Z,83.4
2023-03-15T08:37:55.713Z,83.6
2023-03-15T08:38:59.728Z,83.8
2023-03-15T08:40:03.468Z,83.1
2023-03-15T08:41:07.141Z,82.1
2023-03-15T08:42:09.720Z,82.1
2023-03-15T08:43:12.260Z,82.7
2023-03-15T08:44:16.056Z,81.5
2023-03-15T08:45:19.687Z,80.8
2023-03-15T08:46:22.603Z,80
2023-03-15T08:47:26.067Z,80.5
2023-03-15T08:48:29.422Z,80
2023-03-15T08:49:33.722Z,80
2023-03-15T08:50:36.717Z,79.4
2023-03-15T08:51:39.462Z,78.8
2023-03-15T08:52:43.236Z,79.6
2023-03-15T08:53:46.067Z,79.9
2023-03-15T08:54:49.209Z,78.3
2023-03-15T08:55:52.571Z,79.1
2023-03-15T08:56:56.006Z,79
2023-03-15T08:57:59.073Z,79.6
2023-03-15T08:59:03.200Z,80.6
2023-03-15T09:00:06.267Z,80.9
2023-03-15T09:01:09.849Z,81.5
2023-03-15T09:02:14.262Z,82.5
2023-03-15T09:03:17.823Z,83.1
2023-03-15T09:04:21.910Z,83.3
2023-03-15T09:05:26.094Z,83.7
2023-03-15T09:06:29.444Z,84.4
2023-03-15T09:07:33.101Z,85.1
2023-03-15T09:08:36.213Z,85.2
2023-03-15T09:09:39.712Z,84.8
2023-03-15T09:10:43.451Z,85.9
2023-03-15T09:11:46.828Z,86.1
2023-03-15T09:12:50.165Z,86.1
2023-03-15T09:13:53.552Z,87
2023-03-15T09:14:56.893Z,87.4
2023-03-15T09:16:00.244Z,87.9
2023-03-15T09:17:03.704Z,88
2023-03-15T09:18:07.310Z,88.7
2023-03-15T09:19:10.233Z,88.4
2023-03-15T09:20:13.703Z,88.6
2023-03-15T09:21:17.956Z,88.6
2023-03-15T09:22:40.514Z,88.5
2023-03-15T09:23:44.577Z,89.1
2023-03-15T09:24:52.400Z,89.2
2023-03-15T09:25:55.419Z,89.1
2023-03-15T09:26:58.225Z,89.5
2023-03-15T09:28:01.990Z,90
2023-03-15T09:29:05.185Z,90.1
2023-03-15T09:30:08.240Z,90.1
2023-03-15T09:31:11.309Z,90
2023-03-15T09:32:14.541Z,90
2023-03-15T09:33:18.215Z,90.7
2023-03-15T09:34:33.233Z,90
2023-03-15T09:35:45.837Z,89.7
2023-03-15T09:36:50.241Z,90.1
2023-03-15T09:37:53.334Z,90.5
2023-03-15T09:38:56.490Z,88.7
2023-03-15T09:39:59.204Z,86
2023-03-15T09:41:02.631Z,86.2
2023-03-15T09:42:07.861Z,85.2
2023-03-15T09:43:10.993Z,83.9
2023-03-15T09:44:14.788Z,83.8
2023-03-15T09:45:17.882Z,82.8
2023-03-15T09:46:22.148Z,83.2
2023-03-15T09:47:25.187Z,84.3
2023-03-15T09:48:27.933Z,82.8
2023-03-15T09:49:30.220Z,82.5
2023-03-15T09:50:33.634Z,82.1
2023-03-15T09:51:36.846Z,83.1
2023-03-15T09:52:41.038Z,82
2023-03-15T09:53:45.080Z,82
2023-03-15T09:54:48.823Z,80.8
2023-03-15T09:55:52.534Z,81.4
2023-03-15T09:56:55.327Z,80.8
2023-03-15T09:57:58.238Z,80.1
2023-03-15T09:59:02.003Z,80.2
2023-03-15T10:00:04.482Z,80
2023-03-15T10:01:07.677Z,79.4
2023-03-15T10:02:11.854Z,77.9
2023-03-15T10:03:15.210Z,76.6
2023-03-15T10:04:18.261Z,77.2
2023-03-15T10:05:21.096Z,76.8
2023-03-15T10:06:24.215Z,76
2023-03-15T10:07:27.563Z,76.8
2023-03-15T10:08:31.385Z,75
2023-03-15T10:09:34.907Z,74.1
2023-03-15T10:10:37.989Z,73.9
2023-03-15T10:11:41.853Z,72
2023-03-15T10:12:45.861Z,70.9
2023-03-15T10:13:49.492Z,72
2023-03-15T10:14:52.963Z,71
2023-03-15T10:15:56.880Z,71.3
2023-03-15T10:17:00.247Z,70.5
2023-03-15T10:18:03.366Z,70.5
2023-03-15T10:19:07.039Z,70.5
2023-03-15T10:20:10.260Z,69.8
2023-03-15T10:21:13.626Z,69.8
2023-03-15T10:22:16.694Z,68.7
2023-03-15T10:23:20.863Z,69.1
2023-03-15T10:24:24.963Z,69.7
2023-03-15T10:25:28.653Z,68.8
2023-03-15T10:26:32.127Z,69.1
2023-03-15T10:27:35.342Z,69.4
2023-03-15T10:28:38.752Z,68.6
2023-03-15T10:29:42.469Z,66.3
2023-03-15T10:30:45.654Z,67.1
2023-03-15T10:31:49.900Z,64.2
2023-03-15T10:32:53.587Z,63.2
2023-03-15T10:33:56.853Z,64.8
2023-03-15T10:35:00.508Z,63.4
2023-03-15T10:36:12.967Z,64.3
2023-03-15T10:37:16.306Z,65.6
2023-03-15T10:38:19.671Z,64.3
2023-03-15T10:39:23.802Z,64.6
2023-03-15T10:40:27.939Z,65.7
2023-03-15T10:41:31.092Z,65.3
2023-03-15T10:42:33.836Z,65.7
2023-03-15T10:43:36.970Z,65.7
2023-03-15T10:44:40.008Z,66.9
2023-03-15T10:45:43.608Z,68.1
2023-03-15T10:46:46.781Z,69
2023-03-15T10:48:01.809Z,68
2023-03-15T10:49:04.922Z,68.1
2023-03-15T10:50:08.683Z,67.8
2023-03-15T10:51:13.608Z,68.7
2023-03-15T10:52:16.699Z,67.9
2023-03-15T10:53:20.151Z,65
2023-03-15T10:54:23.364Z,64.9
2023-03-15T10:55:26.834Z,66.3
2023-03-15T10:56:31.277Z,64.9
2023-03-15T10:57:34.709Z,63.4
2023-03-15T10:58:38.162Z,62.8
2023-03-15T10:59:41.279Z,63.7
2023-03-15T11:00:45.276Z,61.3
2023-03-15T11:01:48.272Z,62.1
2023-03-15T11:02:51.946Z,61.9
2023-03-15T11:03:55.773Z,61.3
2023-03-15T11:04:58.843Z,62
2023-03-15T11:06:02.226Z,62.7
2023-03-15T11:07:05.356Z,62.4
2023-03-15T11:08:08.707Z,63.1
2023-03-15T11:09:12.518Z,63.4
2023-03-15T11:10:15.523Z,63.3
2023-03-15T11:11:19.044Z,63.8
2023-03-15T11:12:23.206Z,63.4
2023-03-15T11:13:26.919Z,62.1
2023-03-15T11:14:30.347Z,63
2023-03-15T11:15:34.008Z,61.2
2023-03-15T11:16:37.658Z,61.8
2023-03-15T11:17:41.309Z,62.4
2023-03-15T11:18:44.318Z,61.2
2023-03-15T11:19:47.312Z,61.4
2023-03-15T11:20:51.311Z,60.2
2023-03-15T11:21:54.695Z,60.7
2023-03-15T11:22:57.420Z,59.6
2023-03-15T11:24:00.414Z,59.1
2023-03-15T11:25:03.840Z,60
2023-03-15T11:26:06.866Z,60.1
2023-03-15T11:27:11.778Z,60.9
2023-03-15T11:28:15.722Z,61.8
2023-03-15T11:29:18.995Z,61
2023-03-15T11:30:21.753Z,60.5
2023-03-15T11:31:24.995Z,60.4
2023-03-15T11:32:28.167Z,60.6
2023-03-15T11:33:31.349Z,60.4
2023-03-15T11:34:34.420Z,60.3
2023-03-15T11:35:37.964Z,60.9
2023-03-15T11:36:39.881Z,61.6
2023-03-15T11:37:42.897Z,61.6
2023-03-15T11:38:45.867Z,60.4
2023-03-15T11:40:11.103Z,60.1
2023-03-15T11:41:20.174Z,59.8
2023-03-15T11:42:23.963Z,58.7
2023-03-15T11:43:27.781Z,58.6
2023-03-15T11:44:30.801Z,58.1
2023-03-15T11:45:34.831Z,59.7
2023-03-15T11:46:38.745Z,59.2
2023-03-15T11:47:42.504Z,59.7
2023-03-15T11:48:45.800Z,58.7
2023-03-15T11:49:48.896Z,59
2023-03-15T11:50:51.642Z,58.8
2023-03-15T11:51:55.346Z,57.7
2023-03-15T11:52:58.724Z,57.1
2023-03-15T11:54:02.156Z,56.9
2023-03-15T11:55:05.045Z,57.5
2023-03-15T11:56:08.389Z,57.2
2023-03-15T11:57:11.458Z,58.3
2023-03-15T11:58:14.913Z,57
2023-03-15T11:59:19.044Z,58
2023-03-15T12:00:22.638Z,59
2023-03-15T12:01:25.734Z,59.4
2023-03-15T12:02:29.705Z,59.1
2023-03-15T12:03:33.577Z,59.9
2023-03-15T12:04:36.896Z,61.2
2023-03-15T12:05:40.279Z,59
2023-03-15T12:06:43.707Z,59
2023-03-15T12:07:47.394Z,59.5
2023-03-15T12:08:50.903Z,60.6
2023-03-15T12:09:54.290Z,60.9
2023-03-15T12:10:57.539Z,61.6
2023-03-15T12:12:00.834Z,61.2
2023-03-15T12:13:04.118Z,62.3
2023-03-15T12:14:08.289Z,63.7
2023-03-15T12:15:12.554Z,63.7
2023-03-15T12:16:16.308Z,62.3
2023-03-15T12:17:19.150Z,61.5
2023-03-15T12:18:22.250Z,61.5
2023-03-15T12:19:26.142Z,61.8
2023-03-15T12:20:29.879Z,61.2
2023-03-15T12:21:33.003Z,60.7
2023-03-15T12:22:36.784Z,61
2023-03-15T12:23:40.247Z,60.7
2023-03-15T12:24:43.359Z,60.6
2023-03-15T12:25:56.321Z,59.2
2023-03-15T12:26:59.156Z,58.2
2023-03-15T12:28:01.879Z,56.8
2023-03-15T12:29:04.971Z,55.7
2023-03-15T12:30:07.514Z,55.3
2023-03-15T12:31:11.914Z,56.5
2023-03-15T12:32:15.636Z,57.3
2023-03-15T12:33:19.029Z,56.6
2023-03-15T12:34:22.112Z,56.1
2023-03-15T12:35:25.485Z,56.1
2023-03-15T12:36:28.776Z,56.6
2023-03-15T12:37:31.951Z,57.6
2023-03-15T12:38:34.675Z,58.1
2023-03-15T12:39:38.242Z,58.3
2023-03-15T12:40:41.552Z,58.5
2023-03-15T12:41:44.651Z,58.7
2023-03-15T12:42:47.557Z,59.2
2023-03-15T12:43:50.980Z,60
2023-03-15T12:44:54.679Z,60.3
2023-03-15T12:45:58.378Z,59.6
2023-03-15T12:47:02.348Z,59.7
2023-03-15T12:48:05.543Z,60.6
2023-03-15T12:49:09.351Z,61.1
2023-03-15T12:50:12.386Z,62.3
2023-03-15T12:51:15.891Z,62.6
2023-03-15T12:52:18.753Z,62.5
2023-03-15T12:53:22.490Z,62.1
2023-03-15T12:54:25.504Z,61.5
2023-03-15T12:55:29.227Z,58
2023-03-15T12:56:32.332Z,58.6
2023-03-15T12:57:35.854Z,59.7
2023-03-15T12:58:38.667Z,59.8
2023-03-15T12:59:42.710Z,59.2
2023-03-15T13:00:45.553Z,59
2023-03-15T13:01:49.559Z,59.2
2023-03-15T13:02:54.110Z,59.7
2023-03-15T13:03:57.959Z,60.1
2023-03-15T13:05:01.981Z,60.9
2023-03-15T13:06:05.649Z,61
2023-03-15T13:07:09.049Z,60.8
2023-03-15T13:08:12.385Z,61.4
2023-03-15T13:09:16.072Z,60.3
2023-03-15T13:10:19.076Z,60.4
2023-03-15T13:11:22.527Z,61
2023-03-15T13:12:25.875Z,61.1
2023-03-15T13:13:29.225Z,61.8
2023-03-15T13:14:32.676Z,60.9
2023-03-15T13:15:36.318Z,61.4
2023-03-15T13:16:43.285Z,62.2
2023-03-15T13:17:46.527Z,61.6
2023-03-15T13:18:50.405Z,62.3
2023-03-15T13:19:54.143Z,60.5
2023-03-15T13:20:57.500Z,61.2
2023-03-15T13:22:00.952Z,61.6
2023-03-15T13:23:04.498Z,61.2
2023-03-15T13:24:07.207Z,62.1
2023-03-15T13:25:10.944Z,61.9
2023-03-15T13:26:14.399Z,62.6
2023-03-15T13:27:18.149Z,62.5
2023-03-15T13:28:21.791Z,62.1
2023-03-15T13:29:25.238Z,62.8
2023-03-15T13:30:28.861Z,64.8
2023-03-15T13:31:33.398Z,67.9
2023-03-15T13:32:36.802Z,71
2023-03-15T13:33:40.111Z,73.6
2023-03-15T13:34:44.240Z,75.7
2023-03-15T13:35:47.263Z,77.9
2023-03-15T13:36:49.967Z,79.1
2023-03-15T13:37:52.778Z,80.1
2023-03-15T13:38:56.461Z,81.4
2023-03-15T13:40:00.220Z,82
2023-03-15T13:41:03.957Z,82.7
2023-03-15T13:42:07.342Z,82.1
2023-03-15T13:43:09.528Z,81.7
2023-03-15T13:44:12.618Z,82.4
2023-03-15T13:45:15.413Z,82.7
2023-03-15T13:46:19.361Z,82.8
2023-03-15T13:47:22.500Z,83.4
2023-03-15T13:48:25.895Z,83.1
2023-03-15T13:49:29.444Z,82.4
2023-03-15T13:50:33.762Z,80.6
2023-03-15T13:51:37.169Z,78
2023-03-15T13:52:40.535Z,75.7
2023-03-15T13:53:51.700Z,75.5
2023-03-15T13:54:55.420Z,74.8
2023-03-15T13:55:58.680Z,75.4
2023-03-15T13:57:02.401Z,74
2023-03-15T13:58:05.510Z,72.7
2023-03-15T13:59:09.309Z,72.2
2023-03-15T14:00:12.233Z,72.2
2023-03-15T14:01:15.750Z,73.2
2023-03-15T14:02:19.456Z,73.8
2023-03-15T14:03:22.563Z,72.4
2023-03-15T14:04:25.931Z,71.4
2023-03-15T14:05:28.847Z,71.6
2023-03-15T14:06:33.031Z,72.4
2023-03-15T14:07:36.695Z,72
2023-03-15T14:08:39.710Z,72.2
2023-03-15T14:09:42.979Z,72.7
2023-03-15T14:10:46.633Z,73.4
2023-03-15T14:11:50.739Z,72.6